sensor_id;sensor_type;location;lat;lon;timestamp;P1;durP1;ratioP1;P2;durP2;ratioP2
75866;SDS011;64513;56.258;43.980;2023-01-30T00:00:16;24.98;;;10.23;;
75866;SDS011;64513;56.258;43.980;2023-01-30T00:02:41;27.45;;;10.70;;
75866;SDS011;64513;56.258;43.980;2023-01-30T00:05:05;23.83;;;10.82;;
75866;SDS011;64513;56.258;43.980;2023-01-30T00:07:29;29.37;;;11.25;;
75866;SDS011;64513;56.258;43.980;2023-01-30T00:09:54;25.35;;;10.80;;
75866;SDS011;64513;56.258;43.980;2023-01-30T00:12:18;26.10;;;11.28;;
75866;SDS011;64513;56.258;43.980;2023-01-30T00:14:42;28.20;;;10.55;;
75866;SDS011;64513;56.258;43.980;2023-01-30T00:17:06;24.85;;;10.58;;
75866;SDS011;64513;56.258;43.980;2023-01-30T00:19:30;23.98;;;10.70;;
75866;SDS011;64513;56.258;43.980;2023-01-30T00:21:54;26.23;;;10.78;;
75866;SDS011;64513;56.258;43.980;2023-01-30T00:24:19;25.88;;;11.12;;
75866;SDS011;64513;56.258;43.980;2023-01-30T00:26:43;27.20;;;10.80;;
75866;SDS011;64513;56.258;43.980;2023-01-30T00:29:07;26.55;;;10.60;;
75866;SDS011;64513;56.258;43.980;2023-01-30T00:31:31;27.35;;;11.03;;
75866;SDS011;64513;56.258;43.980;2023-01-30T00:33:55;26.50;;;10.45;;
75866;SDS011;64513;56.258;43.980;2023-01-30T00:36:19;24.47;;;10.60;;
75866;SDS011;64513;56.258;43.980;2023-01-30T00:38:44;22.80;;;9.90;;
75866;SDS011;64513;56.258;43.980;2023-01-30T00:41:08;26.48;;;10.50;;
75866;SDS011;64513;56.258;43.980;2023-01-30T00:43:34;25.72;;;10.68;;
75866;SDS011;64513;56.258;43.980;2023-01-30T00:49:22;24.02;;;9.33;;
75866;SDS011;64513;56.258;43.980;2023-01-30T00:51:46;24.30;;;10.50;;
75866;SDS011;64513;56.258;43.980;2023-01-30T00:54:11;26.37;;;10.88;;
75866;SDS011;64513;56.258;43.980;2023-01-30T00:56:35;25.48;;;10.68;;
75866;SDS011;64513;56.258;43.980;2023-01-30T00:58:59;22.95;;;11.15;;
75866;SDS011;64513;56.258;43.980;2023-01-30T01:01:24;26.60;;;10.35;;
75866;SDS011;64513;56.258;43.980;2023-01-30T01:03:48;23.95;;;10.15;;
75866;SDS011;64513;56.258;43.980;2023-01-30T01:06:12;27.50;;;10.58;;
75866;SDS011;64513;56.258;43.980;2023-01-30T01:08:37;26.80;;;10.08;;
75866;SDS011;64513;56.258;43.980;2023-01-30T01:11:01;26.42;;;10.72;;
75866;SDS011;64513;56.258;43.980;2023-01-30T01:13:25;25.85;;;10.20;;
75866;SDS011;64513;56.258;43.980;2023-01-30T01:15:49;27.20;;;9.90;;
75866;SDS011;64513;56.258;43.980;2023-01-30T01:18:14;24.52;;;10.20;;
75866;SDS011;64513;56.258;43.980;2023-01-30T01:20:38;25.92;;;10.70;;
75866;SDS011;64513;56.258;43.980;2023-01-30T01:23:02;22.15;;;10.13;;
75866;SDS011;64513;56.258;43.980;2023-01-30T01:25:26;25.80;;;10.32;;
75866;SDS011;64513;56.258;43.980;2023-01-30T01:27:50;25.80;;;10.40;;
75866;SDS011;64513;56.258;43.980;2023-01-30T01:30:16;25.80;;;10.32;;
75866;SDS011;64513;56.258;43.980;2023-01-30T01:32:41;22.20;;;9.70;;
75866;SDS011;64513;56.258;43.980;2023-01-30T01:35:05;25.62;;;10.63;;
75866;SDS011;64513;56.258;43.980;2023-01-30T01:37:30;25.20;;;10.68;;
75866;SDS011;64513;56.258;43.980;2023-01-30T01:39:54;23.55;;;10.20;;
75866;SDS011;64513;56.258;43.980;2023-01-30T01:42:38;24.82;;;10.75;;
75866;SDS011;64513;56.258;43.980;2023-01-30T01:47:55;25.97;;;10.18;;
75866;SDS011;64513;56.258;43.980;2023-01-30T01:53:39;26.90;;;10.40;;
75866;SDS011;64513;56.258;43.980;2023-01-30T01:56:05;25.70;;;10.85;;
75866;SDS011;64513;56.258;43.980;2023-01-30T01:58:32;28.20;;;11.33;;
75866;SDS011;64513;56.258;43.980;2023-01-30T02:01:15;26.62;;;11.10;;
75866;SDS011;64513;56.258;43.980;2023-01-30T02:03:41;24.57;;;10.58;;
75866;SDS011;64513;56.258;43.980;2023-01-30T02:06:07;28.15;;;11.40;;
75866;SDS011;64513;56.258;43.980;2023-01-30T02:08:33;26.87;;;10.88;;
75866;SDS011;64513;56.258;43.980;2023-01-30T02:14:23;25.90;;;9.78;;
75866;SDS011;64513;56.258;43.980;2023-01-30T02:16:47;25.82;;;11.10;;
75866;SDS011;64513;56.258;43.980;2023-01-30T02:33:41;25.55;;;11.10;;
75866;SDS011;64513;56.258;43.980;2023-01-30T02:42:18;29.25;;;11.43;;
75866;SDS011;64513;56.258;43.980;2023-01-30T02:53:53;27.37;;;11.05;;
75866;SDS011;64513;56.258;43.980;2023-01-30T02:56:18;26.70;;;11.30;;
75866;SDS011;64513;56.258;43.980;2023-01-30T03:01:31;26.75;;;10.95;;
75866;SDS011;64513;56.258;43.980;2023-01-30T03:15:54;24.90;;;10.90;;
75866;SDS011;64513;56.258;43.980;2023-01-30T03:21:23;25.82;;;11.18;;
75866;SDS011;64513;56.258;43.980;2023-01-30T03:23:47;28.55;;;12.15;;
75866;SDS011;64513;56.258;43.980;2023-01-30T03:28:57;28.80;;;11.50;;
75866;SDS011;64513;56.258;43.980;2023-01-30T03:31:22;27.65;;;11.55;;
75866;SDS011;64513;56.258;43.980;2023-01-30T03:33:46;25.32;;;11.20;;
75866;SDS011;64513;56.258;43.980;2023-01-30T03:36:12;29.63;;;11.63;;
75866;SDS011;64513;56.258;43.980;2023-01-30T03:38:36;27.90;;;10.53;;
75866;SDS011;64513;56.258;43.980;2023-01-30T03:41:01;28.00;;;11.30;;
75866;SDS011;64513;56.258;43.980;2023-01-30T03:43:26;25.30;;;10.85;;
75866;SDS011;64513;56.258;43.980;2023-01-30T03:45:50;25.20;;;11.57;;
75866;SDS011;64513;56.258;43.980;2023-01-30T03:48:15;27.40;;;11.53;;
75866;SDS011;64513;56.258;43.980;2023-01-30T03:50:39;29.07;;;10.85;;
75866;SDS011;64513;56.258;43.980;2023-01-30T03:53:03;26.45;;;11.10;;
75866;SDS011;64513;56.258;43.980;2023-01-30T03:55:27;27.55;;;11.48;;
75866;SDS011;64513;56.258;43.980;2023-01-30T04:00:35;30.55;;;11.83;;
75866;SDS011;64513;56.258;43.980;2023-01-30T04:03:00;28.35;;;11.25;;
75866;SDS011;64513;56.258;43.980;2023-01-30T04:05:24;28.05;;;12.20;;
75866;SDS011;64513;56.258;43.980;2023-01-30T04:07:48;27.50;;;11.30;;
75866;SDS011;64513;56.258;43.980;2023-01-30T04:10:12;30.00;;;11.78;;
75866;SDS011;64513;56.258;43.980;2023-01-30T04:12:38;27.42;;;11.28;;
75866;SDS011;64513;56.258;43.980;2023-01-30T04:15:04;27.73;;;11.95;;
75866;SDS011;64513;56.258;43.980;2023-01-30T04:17:28;25.60;;;11.10;;
75866;SDS011;64513;56.258;43.980;2023-01-30T04:19:52;29.90;;;11.73;;
75866;SDS011;64513;56.258;43.980;2023-01-30T04:22:17;28.52;;;12.25;;
75866;SDS011;64513;56.258;43.980;2023-01-30T04:24:41;26.90;;;11.53;;
75866;SDS011;64513;56.258;43.980;2023-01-30T04:27:05;30.75;;;11.48;;
75866;SDS011;64513;56.258;43.980;2023-01-30T04:29:29;28.10;;;11.80;;
75866;SDS011;64513;56.258;43.980;2023-01-30T04:31:53;29.67;;;12.37;;
75866;SDS011;64513;56.258;43.980;2023-01-30T04:34:18;30.50;;;11.73;;
75866;SDS011;64513;56.258;43.980;2023-01-30T04:36:42;28.55;;;11.57;;
75866;SDS011;64513;56.258;43.980;2023-01-30T04:39:06;29.87;;;11.48;;
75866;SDS011;64513;56.258;43.980;2023-01-30T04:41:30;29.35;;;11.90;;
75866;SDS011;64513;56.258;43.980;2023-01-30T04:43:54;31.17;;;12.45;;
75866;SDS011;64513;56.258;43.980;2023-01-30T04:46:18;27.67;;;11.70;;
75866;SDS011;64513;56.258;43.980;2023-01-30T04:48:42;30.15;;;11.78;;
75866;SDS011;64513;56.258;43.980;2023-01-30T04:51:06;30.15;;;11.43;;
75866;SDS011;64513;56.258;43.980;2023-01-30T04:53:31;30.40;;;12.30;;
75866;SDS011;64513;56.258;43.980;2023-01-30T04:55:55;26.97;;;11.70;;
75866;SDS011;64513;56.258;43.980;2023-01-30T04:58:19;28.70;;;11.90;;
75866;SDS011;64513;56.258;43.980;2023-01-30T05:00:44;30.90;;;12.53;;
75866;SDS011;64513;56.258;43.980;2023-01-30T05:03:08;32.45;;;13.50;;
75866;SDS011;64513;56.258;43.980;2023-01-30T05:05:33;29.35;;;12.65;;
75866;SDS011;64513;56.258;43.980;2023-01-30T05:07:57;28.73;;;13.22;;
75866;SDS011;64513;56.258;43.980;2023-01-30T05:10:21;32.83;;;12.33;;
75866;SDS011;64513;56.258;43.980;2023-01-30T05:12:45;29.07;;;11.60;;
75866;SDS011;64513;56.258;43.980;2023-01-30T05:15:10;31.12;;;12.13;;
75866;SDS011;64513;56.258;43.980;2023-01-30T05:17:35;31.50;;;10.90;;
75866;SDS011;64513;56.258;43.980;2023-01-30T05:20:00;28.57;;;11.73;;
75866;SDS011;64513;56.258;43.980;2023-01-30T05:22:25;28.57;;;11.75;;
75866;SDS011;64513;56.258;43.980;2023-01-30T05:24:49;30.65;;;12.07;;
75866;SDS011;64513;56.258;43.980;2023-01-30T05:27:13;30.37;;;12.15;;
75866;SDS011;64513;56.258;43.980;2023-01-30T05:29:38;29.60;;;11.90;;
75866;SDS011;64513;56.258;43.980;2023-01-30T05:32:02;28.92;;;12.13;;
75866;SDS011;64513;56.258;43.980;2023-01-30T05:34:27;32.10;;;11.48;;
75866;SDS011;64513;56.258;43.980;2023-01-30T05:36:51;27.55;;;11.30;;
75866;SDS011;64513;56.258;43.980;2023-01-30T05:39:15;28.90;;;11.68;;
75866;SDS011;64513;56.258;43.980;2023-01-30T05:41:39;27.00;;;11.60;;
75866;SDS011;64513;56.258;43.980;2023-01-30T05:44:03;29.23;;;11.60;;
75866;SDS011;64513;56.258;43.980;2023-01-30T05:46:28;28.50;;;11.70;;
75866;SDS011;64513;56.258;43.980;2023-01-30T05:48:52;28.05;;;11.60;;
75866;SDS011;64513;56.258;43.980;2023-01-30T05:54:01;30.55;;;11.90;;
75866;SDS011;64513;56.258;43.980;2023-01-30T05:56:25;28.60;;;11.38;;
75866;SDS011;64513;56.258;43.980;2023-01-30T06:01:17;27.37;;;11.43;;
75866;SDS011;64513;56.258;43.980;2023-01-30T06:03:42;30.00;;;11.95;;
75866;SDS011;64513;56.258;43.980;2023-01-30T06:06:06;27.55;;;11.95;;
75866;SDS011;64513;56.258;43.980;2023-01-30T06:08:32;27.62;;;10.88;;
75866;SDS011;64513;56.258;43.980;2023-01-30T06:13:41;28.02;;;11.10;;
75866;SDS011;64513;56.258;43.980;2023-01-30T06:16:06;29.95;;;11.55;;
75866;SDS011;64513;56.258;43.980;2023-01-30T06:18:32;28.90;;;12.60;;
75866;SDS011;64513;56.258;43.980;2023-01-30T06:20:56;29.20;;;11.55;;
75866;SDS011;64513;56.258;43.980;2023-01-30T06:23:21;26.07;;;10.98;;
75866;SDS011;64513;56.258;43.980;2023-01-30T06:25:45;29.10;;;11.40;;
75866;SDS011;64513;56.258;43.980;2023-01-30T06:28:11;28.92;;;10.58;;
75866;SDS011;64513;56.258;43.980;2023-01-30T06:30:36;28.60;;;11.20;;
75866;SDS011;64513;56.258;43.980;2023-01-30T06:33:00;30.52;;;11.20;;
75866;SDS011;64513;56.258;43.980;2023-01-30T06:35:26;28.07;;;10.50;;
75866;SDS011;64513;56.258;43.980;2023-01-30T06:37:52;27.45;;;10.85;;
75866;SDS011;64513;56.258;43.980;2023-01-30T06:40:16;23.67;;;9.78;;
75866;SDS011;64513;56.258;43.980;2023-01-30T06:45:25;28.73;;;10.63;;
75866;SDS011;64513;56.258;43.980;2023-01-30T06:47:50;25.57;;;10.72;;
75866;SDS011;64513;56.258;43.980;2023-01-30T06:50:16;26.17;;;11.00;;
75866;SDS011;64513;56.258;43.980;2023-01-30T06:52:42;26.27;;;10.78;;
75866;SDS011;64513;56.258;43.980;2023-01-30T06:55:09;27.80;;;10.90;;
75866;SDS011;64513;56.258;43.980;2023-01-30T06:57:34;29.57;;;10.68;;
75866;SDS011;64513;56.258;43.980;2023-01-30T06:59:59;25.20;;;10.93;;
75866;SDS011;64513;56.258;43.980;2023-01-30T07:02:29;26.82;;;11.08;;
75866;SDS011;64513;56.258;43.980;2023-01-30T07:04:53;28.32;;;11.55;;
75866;SDS011;64513;56.258;43.980;2023-01-30T07:07:17;28.60;;;11.00;;
75866;SDS011;64513;56.258;43.980;2023-01-30T07:09:41;28.12;;;10.13;;
75866;SDS011;64513;56.258;43.980;2023-01-30T07:12:05;28.70;;;10.80;;
75866;SDS011;64513;56.258;43.980;2023-01-30T07:14:29;25.52;;;10.90;;
75866;SDS011;64513;56.258;43.980;2023-01-30T07:16:53;25.95;;;10.63;;
75866;SDS011;64513;56.258;43.980;2023-01-30T07:19:18;24.40;;;10.50;;
75866;SDS011;64513;56.258;43.980;2023-01-30T07:21:42;26.40;;;10.55;;
75866;SDS011;64513;56.258;43.980;2023-01-30T07:24:06;26.48;;;11.03;;
75866;SDS011;64513;56.258;43.980;2023-01-30T07:26:31;28.10;;;10.93;;
75866;SDS011;64513;56.258;43.980;2023-01-30T07:28:56;25.57;;;11.45;;
75866;SDS011;64513;56.258;43.980;2023-01-30T07:31:20;25.60;;;10.70;;
75866;SDS011;64513;56.258;43.980;2023-01-30T07:33:44;27.50;;;10.98;;
75866;SDS011;64513;56.258;43.980;2023-01-30T07:36:08;26.15;;;10.43;;
75866;SDS011;64513;56.258;43.980;2023-01-30T07:38:32;25.27;;;10.65;;
75866;SDS011;64513;56.258;43.980;2023-01-30T07:40:56;24.95;;;10.85;;
75866;SDS011;64513;56.258;43.980;2023-01-30T07:43:21;23.15;;;9.80;;
75866;SDS011;64513;56.258;43.980;2023-01-30T07:45:46;28.35;;;11.15;;
75866;SDS011;64513;56.258;43.980;2023-01-30T07:48:12;29.05;;;11.48;;
75866;SDS011;64513;56.258;43.980;2023-01-30T07:50:38;25.95;;;11.10;;
75866;SDS011;64513;56.258;43.980;2023-01-30T07:55:47;23.55;;;10.45;;
75866;SDS011;64513;56.258;43.980;2023-01-30T08:00:38;24.45;;;9.70;;
75866;SDS011;64513;56.258;43.980;2023-01-30T08:03:02;23.07;;;9.78;;
75866;SDS011;64513;56.258;43.980;2023-01-30T08:05:26;26.50;;;9.75;;
75866;SDS011;64513;56.258;43.980;2023-01-30T08:07:50;23.80;;;9.80;;
75866;SDS011;64513;56.258;43.980;2023-01-30T08:10:15;22.77;;;9.28;;
75866;SDS011;64513;56.258;43.980;2023-01-30T08:12:39;21.70;;;9.38;;
75866;SDS011;64513;56.258;43.980;2023-01-30T08:15:04;23.07;;;9.55;;
75866;SDS011;64513;56.258;43.980;2023-01-30T08:17:30;23.83;;;10.30;;
75866;SDS011;64513;56.258;43.980;2023-01-30T08:19:54;23.30;;;9.70;;
75866;SDS011;64513;56.258;43.980;2023-01-30T08:22:18;25.17;;;10.65;;
75866;SDS011;64513;56.258;43.980;2023-01-30T08:24:42;24.70;;;9.53;;
75866;SDS011;64513;56.258;43.980;2023-01-30T08:27:06;23.83;;;9.63;;
75866;SDS011;64513;56.258;43.980;2023-01-30T08:29:31;24.18;;;9.88;;
75866;SDS011;64513;56.258;43.980;2023-01-30T08:34:39;23.05;;;9.50;;
75866;SDS011;64513;56.258;43.980;2023-01-30T08:37:03;22.45;;;9.20;;
75866;SDS011;64513;56.258;43.980;2023-01-30T08:39:27;24.98;;;9.60;;
75866;SDS011;64513;56.258;43.980;2023-01-30T08:41:51;20.90;;;8.45;;
75866;SDS011;64513;56.258;43.980;2023-01-30T08:44:16;17.80;;;7.90;;
75866;SDS011;64513;56.258;43.980;2023-01-30T08:46:40;18.37;;;7.85;;
75866;SDS011;64513;56.258;43.980;2023-01-30T08:49:04;19.12;;;7.80;;
75866;SDS011;64513;56.258;43.980;2023-01-30T08:51:28;20.27;;;8.75;;
75866;SDS011;64513;56.258;43.980;2023-01-30T08:53:53;20.30;;;8.58;;
75866;SDS011;64513;56.258;43.980;2023-01-30T08:56:17;31.75;;;9.75;;
75866;SDS011;64513;56.258;43.980;2023-01-30T08:58:41;18.87;;;8.33;;
75866;SDS011;64513;56.258;43.980;2023-01-30T09:01:06;22.93;;;8.73;;
75866;SDS011;64513;56.258;43.980;2023-01-30T09:03:30;18.02;;;7.87;;
75866;SDS011;64513;56.258;43.980;2023-01-30T09:05:54;19.50;;;8.18;;
75866;SDS011;64513;56.258;43.980;2023-01-30T09:08:18;21.60;;;8.00;;
75866;SDS011;64513;56.258;43.980;2023-01-30T09:10:42;19.65;;;7.92;;
75866;SDS011;64513;56.258;43.980;2023-01-30T09:15:51;20.17;;;7.35;;
75866;SDS011;64513;56.258;43.980;2023-01-30T09:18:17;17.75;;;7.25;;
75866;SDS011;64513;56.258;43.980;2023-01-30T09:20:41;18.30;;;7.50;;
75866;SDS011;64513;56.258;43.980;2023-01-30T09:23:07;17.90;;;7.10;;
75866;SDS011;64513;56.258;43.980;2023-01-30T09:25:31;15.98;;;6.87;;
75866;SDS011;64513;56.258;43.980;2023-01-30T09:27:55;20.57;;;7.37;;
75866;SDS011;64513;56.258;43.980;2023-01-30T09:30:21;16.80;;;7.45;;
75866;SDS011;64513;56.258;43.980;2023-01-30T09:32:45;15.60;;;7.00;;
75866;SDS011;64513;56.258;43.980;2023-01-30T09:35:10;18.85;;;7.78;;
75866;SDS011;64513;56.258;43.980;2023-01-30T09:37:34;20.25;;;8.30;;
75866;SDS011;64513;56.258;43.980;2023-01-30T09:39:58;20.35;;;7.75;;
75866;SDS011;64513;56.258;43.980;2023-01-30T09:54:21;21.42;;;7.40;;
75866;SDS011;64513;56.258;43.980;2023-01-30T09:59:36;20.45;;;7.60;;
75866;SDS011;64513;56.258;43.980;2023-01-30T10:30:55;18.17;;;7.22;;
75866;SDS011;64513;56.258;43.980;2023-01-30T10:36:07;16.93;;;7.47;;
75866;SDS011;64513;56.258;43.980;2023-01-30T10:38:51;17.52;;;7.37;;
75866;SDS011;64513;56.258;43.980;2023-01-30T10:49:52;16.10;;;6.45;;
75866;SDS011;64513;56.258;43.980;2023-01-30T10:52:21;19.85;;;7.97;;
75866;SDS011;64513;56.258;43.980;2023-01-30T11:01:15;16.52;;;7.10;;
75866;SDS011;64513;56.258;43.980;2023-01-30T11:06:26;17.10;;;6.78;;
75866;SDS011;64513;56.258;43.980;2023-01-30T11:08:52;17.10;;;6.60;;
75866;SDS011;64513;56.258;43.980;2023-01-30T11:14:21;16.10;;;6.83;;
75866;SDS011;64513;56.258;43.980;2023-01-30T11:19:32;14.58;;;6.47;;
75866;SDS011;64513;56.258;43.980;2023-01-30T11:24:43;16.80;;;6.92;;
75866;SDS011;64513;56.258;43.980;2023-01-30T11:30:26;15.38;;;5.90;;
75866;SDS011;64513;56.258;43.980;2023-01-30T11:32:40;16.82;;;6.75;;
75866;SDS011;64513;56.258;43.980;2023-01-30T11:37:34;17.60;;;6.65;;
75866;SDS011;64513;56.258;43.980;2023-01-30T11:40:00;15.55;;;6.90;;
75866;SDS011;64513;56.258;43.980;2023-01-30T11:42:46;17.52;;;6.10;;
75866;SDS011;64513;56.258;43.980;2023-01-30T11:51:02;19.75;;;6.10;;
75866;SDS011;64513;56.258;43.980;2023-01-30T11:58:22;15.08;;;6.00;;
75866;SDS011;64513;56.258;43.980;2023-01-30T12:00:48;17.40;;;6.80;;
75866;SDS011;64513;56.258;43.980;2023-01-30T12:03:14;20.08;;;6.87;;
75866;SDS011;64513;56.258;43.980;2023-01-30T12:05:40;15.83;;;6.65;;
75866;SDS011;64513;56.258;43.980;2023-01-30T12:10:53;13.53;;;5.70;;
75866;SDS011;64513;56.258;43.980;2023-01-30T12:27:30;17.30;;;6.30;;
75866;SDS011;64513;56.258;43.980;2023-01-30T12:33:17;21.93;;;6.70;;
75866;SDS011;64513;56.258;43.980;2023-01-30T13:23:16;13.58;;;5.97;;
75866;SDS011;64513;56.258;43.980;2023-01-30T13:25:43;16.80;;;5.80;;
75866;SDS011;64513;56.258;43.980;2023-01-30T13:28:10;18.85;;;6.08;;
75866;SDS011;64513;56.258;43.980;2023-01-30T13:30:54;20.52;;;6.37;;
75866;SDS011;64513;56.258;43.980;2023-01-30T13:33:21;15.55;;;6.33;;
75866;SDS011;64513;56.258;43.980;2023-01-30T13:38:32;15.00;;;5.85;;
75866;SDS011;64513;56.258;43.980;2023-01-30T13:40:59;15.85;;;6.72;;
75866;SDS011;64513;56.258;43.980;2023-01-30T13:46:10;16.97;;;6.20;;
75866;SDS011;64513;56.258;43.980;2023-01-30T14:14:27;20.68;;;8.00;;
75866;SDS011;64513;56.258;43.980;2023-01-30T14:17:13;18.42;;;7.53;;
75866;SDS011;64513;56.258;43.980;2023-01-30T14:38:40;18.85;;;7.42;;
75866;SDS011;64513;56.258;43.980;2023-01-30T14:43:52;23.98;;;9.10;;
75866;SDS011;64513;56.258;43.980;2023-01-30T14:56:45;17.23;;;7.10;;
75866;SDS011;64513;56.258;43.980;2023-01-30T15:05:04;16.75;;;6.65;;
75866;SDS011;64513;56.258;43.980;2023-01-30T15:07:50;16.12;;;6.92;;
75866;SDS011;64513;56.258;43.980;2023-01-30T15:33:20;17.60;;;7.58;;
75866;SDS011;64513;56.258;43.980;2023-01-30T15:35:46;16.73;;;7.00;;
75866;SDS011;64513;56.258;43.980;2023-01-30T15:55:20;15.75;;;6.95;;
75866;SDS011;64513;56.258;43.980;2023-01-30T15:58:05;18.07;;;7.20;;
75866;SDS011;64513;56.258;43.980;2023-01-30T16:00:50;19.45;;;6.83;;
75866;SDS011;64513;56.258;43.980;2023-01-30T16:03:18;18.55;;;7.00;;
75866;SDS011;64513;56.258;43.980;2023-01-30T16:08:29;18.00;;;7.10;;
75866;SDS011;64513;56.258;43.980;2023-01-30T16:10:56;15.60;;;6.83;;
75866;SDS011;64513;56.258;43.980;2023-01-30T16:13:21;20.15;;;7.28;;
75866;SDS011;64513;56.258;43.980;2023-01-30T16:18:51;19.17;;;7.22;;
75866;SDS011;64513;56.258;43.980;2023-01-30T16:21:18;17.80;;;6.70;;
75866;SDS011;64513;56.258;43.980;2023-01-30T16:24:04;18.05;;;6.90;;
75866;SDS011;64513;56.258;43.980;2023-01-30T16:26:31;19.82;;;7.05;;
75866;SDS011;64513;56.258;43.980;2023-01-30T16:31:43;16.97;;;6.83;;
75866;SDS011;64513;56.258;43.980;2023-01-30T16:36:58;18.17;;;6.72;;
75866;SDS011;64513;56.258;43.980;2023-01-30T16:39:41;17.80;;;6.83;;
75866;SDS011;64513;56.258;43.980;2023-01-30T16:44:55;18.77;;;6.78;;
75866;SDS011;64513;56.258;43.980;2023-01-30T16:47:38;16.10;;;6.10;;
75866;SDS011;64513;56.258;43.980;2023-01-30T16:50:03;16.45;;;7.08;;
75866;SDS011;64513;56.258;43.980;2023-01-30T16:52:30;15.00;;;6.60;;
75866;SDS011;64513;56.258;43.980;2023-01-30T16:54:58;18.60;;;7.15;;
75866;SDS011;64513;56.258;43.980;2023-01-30T17:14:20;15.10;;;5.80;;
75866;SDS011;64513;56.258;43.980;2023-01-30T17:16:58;17.35;;;7.30;;
75866;SDS011;64513;56.258;43.980;2023-01-30T17:19:14;15.28;;;6.50;;
75866;SDS011;64513;56.258;43.980;2023-01-30T17:24:24;15.98;;;6.78;;
75866;SDS011;64513;56.258;43.980;2023-01-30T17:26:49;14.90;;;6.00;;
75866;SDS011;64513;56.258;43.980;2023-01-30T17:29:17;15.68;;;6.58;;
75866;SDS011;64513;56.258;43.980;2023-01-30T17:31:42;16.02;;;5.65;;
75866;SDS011;64513;56.258;43.980;2023-01-30T17:34:09;16.93;;;5.90;;
75866;SDS011;64513;56.258;43.980;2023-01-30T17:36:33;15.50;;;6.80;;
75866;SDS011;64513;56.258;43.980;2023-01-30T17:38:57;14.90;;;6.00;;
75866;SDS011;64513;56.258;43.980;2023-01-30T17:41:22;14.90;;;6.25;;
75866;SDS011;64513;56.258;43.980;2023-01-30T17:44:07;17.62;;;6.50;;
75866;SDS011;64513;56.258;43.980;2023-01-30T17:52:00;14.90;;;6.40;;
75866;SDS011;64513;56.258;43.980;2023-01-30T17:54:25;15.50;;;6.47;;
75866;SDS011;64513;56.258;43.980;2023-01-30T17:57:09;16.48;;;6.55;;
75866;SDS011;64513;56.258;43.980;2023-01-30T17:59:35;15.32;;;5.87;;
75866;SDS011;64513;56.258;43.980;2023-01-30T18:02:00;17.30;;;6.30;;
75866;SDS011;64513;56.258;43.980;2023-01-30T18:04:24;19.25;;;6.40;;
75866;SDS011;64513;56.258;43.980;2023-01-30T18:09:36;14.98;;;6.08;;
75866;SDS011;64513;56.258;43.980;2023-01-30T18:12:00;16.57;;;6.33;;
75866;SDS011;64513;56.258;43.980;2023-01-30T18:14:24;16.10;;;6.60;;
75866;SDS011;64513;56.258;43.980;2023-01-30T18:16:48;16.65;;;6.15;;
75866;SDS011;64513;56.258;43.980;2023-01-30T18:19:16;15.55;;;6.05;;
75866;SDS011;64513;56.258;43.980;2023-01-30T18:22:00;16.52;;;6.97;;
75866;SDS011;64513;56.258;43.980;2023-01-30T18:24:24;16.85;;;5.75;;
75866;SDS011;64513;56.258;43.980;2023-01-30T18:26:49;14.00;;;6.75;;
75866;SDS011;64513;56.258;43.980;2023-01-30T18:29:13;14.60;;;6.50;;
75866;SDS011;64513;56.258;43.980;2023-01-30T18:31:37;16.27;;;6.67;;
75866;SDS011;64513;56.258;43.980;2023-01-30T18:34:02;15.35;;;6.83;;
75866;SDS011;64513;56.258;43.980;2023-01-30T18:36:26;18.35;;;5.75;;
75866;SDS011;64513;56.258;43.980;2023-01-30T18:38:51;16.73;;;5.50;;
75866;SDS011;64513;56.258;43.980;2023-01-30T18:41:17;13.50;;;5.70;;
75866;SDS011;64513;56.258;43.980;2023-01-30T18:43:43;15.83;;;6.03;;
75866;SDS011;64513;56.258;43.980;2023-01-30T18:48:54;15.18;;;6.05;;
75866;SDS011;64513;56.258;43.980;2023-01-30T18:51:22;19.87;;;6.78;;
75866;SDS011;64513;56.258;43.980;2023-01-30T18:53:49;17.40;;;7.20;;
75866;SDS011;64513;56.258;43.980;2023-01-30T18:56:16;18.02;;;6.75;;
75866;SDS011;64513;56.258;43.980;2023-01-30T18:58:42;16.55;;;6.70;;
75866;SDS011;64513;56.258;43.980;2023-01-30T19:01:09;19.87;;;6.90;;
75866;SDS011;64513;56.258;43.980;2023-01-30T19:06:21;16.40;;;7.40;;
75866;SDS011;64513;56.258;43.980;2023-01-30T19:08:46;17.02;;;7.03;;
75866;SDS011;64513;56.258;43.980;2023-01-30T19:11:12;17.27;;;6.58;;
75866;SDS011;64513;56.258;43.980;2023-01-30T19:13:57;20.32;;;7.53;;
75866;SDS011;64513;56.258;43.980;2023-01-30T19:16:23;19.42;;;7.92;;
75866;SDS011;64513;56.258;43.980;2023-01-30T19:18:48;17.80;;;7.20;;
75866;SDS011;64513;56.258;43.980;2023-01-30T19:21:13;19.12;;;7.72;;
75866;SDS011;64513;56.258;43.980;2023-01-30T19:23:38;18.25;;;7.67;;
75866;SDS011;64513;56.258;43.980;2023-01-30T19:26:03;16.82;;;7.10;;
75866;SDS011;64513;56.258;43.980;2023-01-30T19:28:28;19.30;;;7.78;;
75866;SDS011;64513;56.258;43.980;2023-01-30T19:30:53;17.80;;;7.40;;
75866;SDS011;64513;56.258;43.980;2023-01-30T19:33:18;16.52;;;7.35;;
75866;SDS011;64513;56.258;43.980;2023-01-30T19:35:42;18.75;;;7.83;;
75866;SDS011;64513;56.258;43.980;2023-01-30T19:38:06;19.55;;;7.72;;
75866;SDS011;64513;56.258;43.980;2023-01-30T19:40:31;17.32;;;7.62;;
75866;SDS011;64513;56.258;43.980;2023-01-30T19:42:55;21.20;;;7.85;;
75866;SDS011;64513;56.258;43.980;2023-01-30T19:45:19;18.65;;;7.83;;
75866;SDS011;64513;56.258;43.980;2023-01-30T19:47:44;17.62;;;8.20;;
75866;SDS011;64513;56.258;43.980;2023-01-30T19:50:08;19.65;;;8.28;;
75866;SDS011;64513;56.258;43.980;2023-01-30T19:52:33;18.52;;;7.22;;
75866;SDS011;64513;56.258;43.980;2023-01-30T19:54:57;18.60;;;7.70;;
75866;SDS011;64513;56.258;43.980;2023-01-30T19:57:21;18.32;;;7.37;;
75866;SDS011;64513;56.258;43.980;2023-01-30T19:59:46;22.65;;;8.38;;
75866;SDS011;64513;56.258;43.980;2023-01-30T20:02:10;18.25;;;7.45;;
75866;SDS011;64513;56.258;43.980;2023-01-30T20:04:34;15.70;;;7.25;;
75866;SDS011;64513;56.258;43.980;2023-01-30T20:07:00;17.85;;;8.20;;
75866;SDS011;64513;56.258;43.980;2023-01-30T20:09:24;16.48;;;7.03;;
75866;SDS011;64513;56.258;43.980;2023-01-30T20:11:48;17.65;;;7.40;;
75866;SDS011;64513;56.258;43.980;2023-01-30T20:14:12;16.95;;;7.30;;
75866;SDS011;64513;56.258;43.980;2023-01-30T20:16:37;18.80;;;6.97;;
75866;SDS011;64513;56.258;43.980;2023-01-30T20:19:02;17.30;;;7.70;;
75866;SDS011;64513;56.258;43.980;2023-01-30T20:21:28;20.80;;;7.58;;
75866;SDS011;64513;56.258;43.980;2023-01-30T20:23:53;18.82;;;7.08;;
75866;SDS011;64513;56.258;43.980;2023-01-30T20:26:19;17.80;;;7.00;;
75866;SDS011;64513;56.258;43.980;2023-01-30T20:28:45;18.23;;;6.92;;
75866;SDS011;64513;56.258;43.980;2023-01-30T20:33:38;16.55;;;7.35;;
75866;SDS011;64513;56.258;43.980;2023-01-30T20:36:03;16.87;;;7.45;;
75866;SDS011;64513;56.258;43.980;2023-01-30T20:38:30;19.52;;;7.30;;
75866;SDS011;64513;56.258;43.980;2023-01-30T20:43:43;19.30;;;8.30;;
75866;SDS011;64513;56.258;43.980;2023-01-30T20:46:29;17.30;;;7.53;;
75866;SDS011;64513;56.258;43.980;2023-01-30T20:49:17;18.00;;;7.28;;
75866;SDS011;64513;56.258;43.980;2023-01-30T20:51:42;18.82;;;7.45;;
75866;SDS011;64513;56.258;43.980;2023-01-30T20:54:07;17.02;;;8.15;;